Birobidzhan, Russia
Current Conditions -  °F | °C
As of 4:30 PM on Monday 24 Nov 2014 (Local Time) from UHHH Reporting Station
Blowing Snow Blowing Snow  
Wind Chill:   Ceiling: Unl
Heat Index: 18°   Visibility: 6mi
Dew Point:   Wind: 16mph
Humidity: 68%   Direction: 260°W
Pressure: 30.09"   Gusts: 22mph
Location:  48.8°N, 132.95°E
Report Text: UHHH 240830Z 26007G10MPS 9999 DRSN SKC M08/M13 Q1019 NOSIG RMKQFE758/1011 238///50
Loading
Personal Weather Stations






























Interactive Weather Map New forecast layout! Learn more

10-Day Weather Forecast

Advertisements
Track Severe Weather on mobile